Trenton, Illinois
Current Conditions -  °F | °C
As of 1:58 AM on Saturday 29 Nov 2014 (Local Time) from KBLV Reporting Station
Clear Clear  
Wind Chill: 34°   Ceiling: Unl
Heat Index: 41°   Visibility: 10mi
Dew Point: 36°   Wind: 12mph
Humidity: 84%   Direction: 170°S
Pressure: 29.87"   Gusts: NA
Location:  38.61°N, 89.68°W
Report Text: KBLV 290758Z AUTO 17010KT 10SM CLR 05/02 A2987 RMK AO2 SLP120 T00490024
Loading
Personal Weather Stations






























Interactive Weather Map New forecast layout! Learn more

10-Day Weather Forecast

Advertisements
Track Severe Weather on mobile